Time;durP1;ratioP1;P1;durP2;ratioP2;P2;SDS_P1;SDS_P2;PMS_P1;PMS_P2;Temp;Humidity;BMP_temperature;BMP_pressure;BME280_temperature;BME280_humidity;BME280_pressure;Samples;Min_cycle;Max_cycle;Signal;HPM_P1;HPM_P2
2022/01/25 00:30:29;;;;;;;153.18;72.15;;;;;;;0.50;100.00;100176.72;2147906;83;21503;-89
2022/01/25 00:33:26;;;;;;;137.80;61.20;;;;;;;0.55;100.00;100187.64;2146536;83;21079;-90
2022/01/25 00:36:27;;;;;;;130.72;59.48;;;;;;;0.60;100.00;100180.11;2145981;83;21026;-84
2022/01/25 00:39:28;;;;;;;123.47;58.87;;;;;;;0.61;100.00;100172.28;2091735;85;21068;-89
2022/01/25 00:42:28;;;;;;;133.15;60.48;;;;;;;0.60;100.00;100174.95;2128496;84;21049;-86
2022/01/25 00:45:29;;;;;;;138.32;62.83;;;;;;;0.60;100.00;100183.97;2091904;85;21050;-86
2022/01/25 00:48:41;;;;;;;135.80;63.13;;;;;;;0.51;100.00;100177.09;2130287;84;21005;-88
2022/01/25 00:54:39;;;;;;;136.37;61.55;;;;;;;0.54;100.00;100158.05;2199821;81;21089;-88
2022/01/25 00:57:36;;;;;;;126.38;62.27;;;;;;;0.56;100.00;100170.42;2147175;82;21079;-88
2022/01/25 01:00:37;;;;;;;121.25;56.88;;;;;;;0.60;100.00;100160.77;2147658;83;21036;-88
2022/01/25 01:03:38;;;;;;;134.45;59.83;;;;;;;0.64;100.00;100168.70;2148047;83;21142;-89
2022/01/25 01:06:41;;;;;;;132.95;63.80;;;;;;;0.61;100.00;100165.84;2149209;83;21024;-88
2022/01/25 01:09:43;;;;;;;130.20;61.68;;;;;;;0.63;100.00;100159.31;2149212;82;21053;-87
2022/01/25 01:16:18;;;;;;;170.15;65.45;;;;;;;0.63;100.00;100143.38;2148554;83;20992;-89
2022/01/25 01:32:32;;;;;;;155.90;70.67;;;;;;;0.60;100.00;100128.09;2147946;83;21055;-90
2022/01/25 01:48:07;;;;;;;125.50;59.05;;;;;;;0.70;100.00;100106.52;2217704;80;21001;-89
2022/01/25 01:51:14;;;;;;;115.20;54.85;;;;;;;0.76;100.00;100104.44;2217361;80;20984;-90
2022/01/25 01:54:08;;;;;;;116.28;52.20;;;;;;;0.74;100.00;100094.67;2216380;80;20966;-88
2022/01/25 01:57:09;;;;;;;113.72;56.30;;;;;;;0.70;100.00;100106.52;2218050;80;21548;-87
2022/01/25 02:00:10;;;;;;;136.47;67.17;;;;;;;0.64;100.00;100100.39;2217875;80;20985;-88
2022/01/25 02:03:11;;;;;;;133.03;60.38;;;;;;;0.65;100.00;100094.34;2218020;80;21521;-88
2022/01/25 02:06:12;;;;;;;117.75;55.35;;;;;;;0.65;100.00;100102.91;2219715;80;20985;-89
2022/01/25 02:09:12;;;;;;;120.22;53.90;;;;;;;0.61;100.00;100097.98;2218378;80;20950;-89
2022/01/25 02:12:13;;;;;;;121.80;52.25;;;;;;;0.63;100.00;100102.14;2217923;80;20985;-89
2022/01/25 02:15:15;;;;;;;124.38;56.58;;;;;;;0.64;100.00;100096.52;2218169;80;21064;-86
2022/01/25 02:24:44;;;;;;;122.92;58.30;;;;;;;0.68;100.00;100074.83;2217553;80;21540;-89
2022/01/25 02:27:45;;;;;;;123.02;54.70;;;;;;;0.67;100.00;100066.73;2217464;80;21013;-88
2022/01/25 02:30:46;;;;;;;165.88;89.77;;;;;;;0.66;100.00;100064.61;2217440;80;21065;-88
2022/01/25 02:33:47;;;;;;;143.62;70.10;;;;;;;0.72;100.00;100057.81;2217730;80;21453;-88
2022/01/25 02:36:48;;;;;;;128.30;59.63;;;;;;;0.76;100.00;100059.32;2217531;80;21085;-90
2022/01/25 02:39:49;;;;;;;122.92;57.43;;;;;;;0.80;100.00;100068.53;2217116;80;21613;-88
2022/01/25 02:42:51;;;;;;;136.50;59.05;;;;;;;0.81;100.00;100065.03;2217265;80;21025;-89
2022/01/25 02:46:16;;;;;;;132.40;59.88;;;;;;;0.83;100.00;100061.11;2218038;80;21084;-85
2022/01/25 02:48:55;;;;;;;132.85;59.33;;;;;;;0.85;100.00;100055.41;2214631;80;21009;-87
2022/01/25 02:51:55;;;;;;;125.27;55.23;;;;;;;0.88;100.00;100055.22;2217640;80;21084;-88
2022/01/25 02:54:56;;;;;;;115.90;55.15;;;;;;;0.94;100.00;100054.89;2217540;80;20974;-87
2022/01/25 02:57:57;;;;;;;121.35;54.20;;;;;;;1.00;100.00;100061.44;2217540;80;21057;-86
2022/01/25 03:00:58;;;;;;;145.22;70.85;;;;;;;1.06;100.00;100061.09;2217715;80;20954;-89
2022/01/25 03:03:59;;;;;;;127.15;59.50;;;;;;;1.11;100.00;100061.22;2220143;80;21010;-82
2022/01/25 03:07:00;;;;;;;121.50;54.58;;;;;;;1.15;100.00;100055.42;2220958;80;21024;-84
2022/01/25 03:10:01;;;;;;;124.55;54.58;;;;;;;1.17;100.00;100051.00;2190610;80;21417;-86
2022/01/25 03:13:02;;;;;;;110.40;52.03;;;;;;;1.18;100.00;100043.63;2217754;80;21016;-88
2022/01/25 03:16:07;;;;;;;106.32;52.08;;;;;;;1.19;100.00;100045.74;2217717;80;21009;-88
2022/01/25 03:19:28;;;;;;;116.30;52.50;;;;;;;1.20;100.00;100044.39;2216977;80;21048;-88
2022/01/25 03:22:44;;;;;;;114.32;50.90;;;;;;;1.20;100.00;100039.23;2213156;80;20989;-89
2022/01/25 03:25:29;;;;;;;109.27;49.48;;;;;;;1.20;100.00;100035.36;2213640;80;21060;-87
2022/01/25 03:28:29;;;;;;;112.77;54.05;;;;;;;1.22;100.00;100028.35;2219915;80;21013;-84
2022/01/25 03:31:30;;;;;;;112.15;48.68;;;;;;;1.25;100.00;100024.30;2220513;80;20994;-84
2022/01/25 03:34:31;;;;;;;106.07;49.88;;;;;;;1.29;100.00;100030.95;2191892;80;20970;-82
2022/01/25 03:37:32;;;;;;;109.22;49.75;;;;;;;1.30;100.00;100021.47;2219412;80;21108;-90
2022/01/25 03:40:33;;;;;;;112.20;52.55;;;;;;;1.29;100.00;100030.95;2199360;80;21013;-83
2022/01/25 03:43:35;;;;;;;104.60;47.53;;;;;;;1.31;100.00;100023.13;2225212;80;21006;-85
2022/01/25 03:49:50;;;;;;;91.95;45.85;;;;;;;1.25;100.00;100019.13;2224872;80;21054;-84
2022/01/25 03:52:51;;;;;;;104.10;49.15;;;;;;;1.21;100.00;100016.37;2224922;80;20969;-86
2022/01/25 03:55:52;;;;;;;102.02;48.70;;;;;;;1.23;100.00;100018.40;2224725;80;21009;-83
2022/01/25 03:58:53;;;;;;;118.42;54.30;;;;;;;1.24;100.00;100003.75;2222822;80;20941;-88
2022/01/25 04:01:54;;;;;;;113.42;47.67;;;;;;;1.30;100.00;99998.23;2222675;80;21024;-84
2022/01/25 04:04:56;;;;;;;99.72;46.33;;;;;;;1.35;100.00;99998.32;2199042;80;21538;-85
2022/01/25 04:07:57;;;;;;;97.55;44.53;;;;;;;1.39;100.00;99997.23;2222167;80;20926;-86
2022/01/25 04:10:58;;;;;;;92.30;43.90;;;;;;;1.41;100.00;99999.27;2222546;80;20997;-86
2022/01/25 04:13:59;;;;;;;102.20;46.55;;;;;;;1.46;100.00;99998.15;2222159;80;21005;-88
2022/01/25 04:17:05;;;;;;;93.42;44.50;;;;;;;1.49;100.00;99992.83;2222165;80;21000;-89
2022/01/25 04:20:14;;;;;;;90.10;43.83;;;;;;;1.50;100.00;99990.14;2221436;80;21046;-89
2022/01/25 04:26:30;;;;;;;87.00;45.25;;;;;;;1.50;100.00;99989.32;2222413;80;21089;-88
2022/01/25 04:29:30;;;;;;;90.75;42.05;;;;;;;1.46;100.00;99996.86;2223458;80;20934;-87
2022/01/25 04:32:34;;;;;;;82.67;39.60;;;;;;;1.46;100.00;99986.07;2222487;80;20965;-86
2022/01/25 04:48:57;;;;;;;72.10;36.83;;;;;;;1.52;100.00;99990.05;2222010;80;21113;-89
2022/01/25 04:52:02;;;;;;;74.80;36.47;;;;;;;1.47;100.00;99985.17;2221806;80;21009;-88
2022/01/25 04:58:13;;;;;;;67.82;35.38;;;;;;;1.40;100.00;99973.09;2221943;80;21022;-89
2022/01/25 05:01:07;;;;;;;81.97;39.92;;;;;;;1.39;100.00;99970.60;2220852;80;21049;-88
2022/01/25 05:04:13;;;;;;;72.97;35.28;;;;;;;1.38;100.00;99970.23;2225543;80;21001;-89
2022/01/25 05:07:25;;;;;;;79.42;39.48;;;;;;;1.41;100.00;99968.75;2222301;80;20962;-88
2022/01/25 05:10:14;;;;;;;75.15;38.20;;;;;;;1.38;100.00;99969.77;2219503;80;21536;-87
2022/01/25 05:16:38;;;;;;;78.10;38.45;;;;;;;1.45;100.00;99965.05;2222610;80;21049;-87
2022/01/25 05:22:51;;;;;;;77.62;37.78;;;;;;;1.53;100.00;99960.73;2222159;80;20950;-88
2022/01/25 05:25:52;;;;;;;78.75;37.50;;;;;;;1.55;100.00;99948.55;2222159;80;21064;-88
2022/01/25 05:28:52;;;;;;;74.82;38.45;;;;;;;1.52;100.00;99948.75;2222066;80;20997;-89
2022/01/25 05:31:53;;;;;;;81.60;40.25;;;;;;;1.56;100.00;99945.08;2222257;80;20981;-89
2022/01/25 05:34:54;;;;;;;82.20;38.65;;;;;;;1.61;100.00;99943.03;2222042;80;20961;-87
2022/01/25 05:37:55;;;;;;;72.03;35.38;;;;;;;1.66;100.00;99937.97;2221984;80;20988;-87
2022/01/25 05:40:59;;;;;;;73.70;36.95;;;;;;;1.65;100.00;99940.19;2218973;79;20938;-90
2022/01/25 05:47:14;;;;;;;81.40;38.83;;;;;;;1.65;100.00;99933.73;2219329;80;21025;-87
2022/01/25 05:50:14;;;;;;;75.72;37.40;;;;;;;1.67;100.00;99935.75;2217878;80;21020;-89
2022/01/25 05:53:15;;;;;;;69.27;35.00;;;;;;;1.67;100.00;99920.72;2217686;80;20981;-88
2022/01/25 05:56:16;;;;;;;70.95;34.63;;;;;;;1.65;100.00;99915.66;2217477;80;21079;-89
2022/01/25 05:59:17;;;;;;;72.12;33.55;;;;;;;1.66;100.00;99924.23;2217692;80;21018;-88
2022/01/25 06:02:20;;;;;;;64.37;31.77;;;;;;;1.68;100.00;99914.17;2217793;80;21471;-88
2022/01/25 06:05:20;;;;;;;65.55;34.43;;;;;;;1.71;100.00;99915.72;2217420;80;20985;-89
2022/01/25 06:08:21;;;;;;;68.52;35.17;;;;;;;1.75;100.00;99913.80;2218149;80;21560;-89
2022/01/25 06:11:22;;;;;;;68.97;35.00;;;;;;;1.73;100.00;99916.45;2217611;80;21025;-89
2022/01/25 06:14:23;;;;;;;70.00;32.67;;;;;;;1.73;100.00;99911.28;2217809;80;21014;-89
2022/01/25 06:17:23;;;;;;;65.50;32.35;;;;;;;1.76;100.00;99910.30;2218220;80;20966;-89
2022/01/25 06:20:24;;;;;;;60.95;30.75;;;;;;;1.79;100.00;99916.09;2217709;80;20968;-89
2022/01/25 06:23:25;;;;;;;58.58;29.55;;;;;;;1.82;100.00;99921.05;2217693;80;21049;-88
2022/01/25 06:26:26;;;;;;;57.90;30.65;;;;;;;1.85;100.00;99916.18;2217594;80;21005;-88
2022/01/25 06:29:27;;;;;;;55.15;28.20;;;;;;;1.87;100.00;99911.74;2217889;80;21465;-88
2022/01/25 06:32:28;;;;;;;49.50;26.93;;;;;;;1.90;100.00;99912.83;2218918;80;20965;-86
2022/01/25 06:35:30;;;;;;;61.37;31.33;;;;;;;1.87;100.00;99910.45;2217907;80;21005;-88
2022/01/25 06:38:31;;;;;;;50.35;26.87;;;;;;;1.82;100.00;99905.55;2218247;80;21013;-88
2022/01/25 06:41:34;;;;;;;48.95;27.20;;;;;;;1.73;100.00;99907.41;2222385;80;21035;-88
2022/01/25 06:44:36;;;;;;;43.55;22.50;;;;;;;1.67;100.00;99908.64;2224505;80;21029;-87
2022/01/25 06:47:37;;;;;;;45.03;24.80;;;;;;;1.63;100.00;99911.02;2225533;80;20979;-87
2022/01/25 06:50:38;;;;;;;41.15;23.87;;;;;;;1.64;100.00;99915.72;2222445;80;21008;-88
2022/01/25 06:53:39;;;;;;;45.60;24.27;;;;;;;1.62;100.00;99908.08;2223108;80;21030;-88
2022/01/25 06:56:39;;;;;;;45.80;23.75;;;;;;;1.60;100.00;99916.38;2223157;80;21008;-87
2022/01/25 06:59:40;;;;;;;39.08;21.95;;;;;;;1.57;100.00;99912.70;2222960;80;21021;-86
2022/01/25 07:02:41;;;;;;;39.78;22.85;;;;;;;1.55;100.00;99911.95;2222151;80;20950;-88
2022/01/25 07:05:42;;;;;;;38.65;22.00;;;;;;;1.59;100.00;99914.73;2222091;80;21021;-87
2022/01/25 07:08:45;;;;;;;39.27;20.77;;;;;;;1.66;100.00;99912.61;2222085;80;20988;-87
2022/01/25 07:11:46;;;;;;;39.90;21.05;;;;;;;1.68;100.00;99914.17;2221993;80;20985;-87
2022/01/25 07:14:47;;;;;;;41.55;22.48;;;;;;;1.71;100.00;99906.69;2222152;80;21517;-88
2022/01/25 07:17:48;;;;;;;36.73;21.93;;;;;;;1.65;100.00;99899.34;2221846;80;21048;-88
2022/01/25 07:20:49;;;;;;;41.42;22.00;;;;;;;1.66;100.00;99904.87;2222130;80;21004;-88
2022/01/25 07:23:49;;;;;;;39.53;22.70;;;;;;;1.65;100.00;99907.08;2222347;80;21553;-89
2022/01/25 07:26:50;;;;;;;35.78;19.15;;;;;;;1.68;100.00;99914.63;2222051;80;21004;-88
2022/01/25 07:29:51;;;;;;;32.73;19.17;;;;;;;1.68;100.00;99918.05;2222237;80;20985;-87
2022/01/25 07:32:52;;;;;;;35.98;19.50;;;;;;;1.70;100.00;99914.06;2222220;80;21060;-88
2022/01/25 07:35:53;;;;;;;34.35;18.30;;;;;;;1.71;100.00;99915.27;2222245;80;20953;-84
2022/01/25 07:38:54;;;;;;;28.52;17.70;;;;;;;1.73;100.00;99918.20;2221948;80;21076;-88
2022/01/25 07:41:59;;;;;;;26.62;17.20;;;;;;;1.82;100.00;99917.17;2217561;80;21104;-86
2022/01/25 07:44:57;;;;;;;26.80;15.05;;;;;;;1.86;100.00;99917.37;2216677;80;21002;-83
2022/01/25 07:47:58;;;;;;;28.92;16.82;;;;;;;1.86;100.00;99934.16;2217908;80;21535;-82
2022/01/25 07:50:59;;;;;;;29.60;18.60;;;;;;;1.85;100.00;99923.47;2217858;80;21029;-83
2022/01/25 07:54:00;;;;;;;30.77;18.82;;;;;;;1.90;100.00;99909.78;2217722;80;20993;-83
2022/01/25 07:57:01;;;;;;;29.67;17.57;;;;;;;1.97;100.00;99908.95;2217560;80;20998;-84
2022/01/25 08:00:01;;;;;;;27.05;17.27;;;;;;;1.99;100.00;99907.09;2217670;80;21064;-84
2022/01/25 08:03:02;;;;;;;33.50;19.40;;;;;;;1.99;100.00;99911.80;2217836;80;21524;-84
2022/01/25 08:06:03;;;;;;;30.02;19.45;;;;;;;2.05;100.00;99920.10;2217729;80;20994;-84
2022/01/25 08:09:05;;;;;;;27.30;16.48;;;;;;;2.06;100.00;99904.50;2217849;80;21021;-83
2022/01/25 08:12:06;;;;;;;29.77;16.97;;;;;;;2.12;100.00;99904.59;2217736;80;21001;-86
2022/01/25 08:15:07;;;;;;;32.10;17.00;;;;;;;2.16;100.00;99912.50;2218246;80;20965;-82
2022/01/25 08:18:07;;;;;;;23.07;14.35;;;;;;;2.21;100.00;99896.25;2218529;80;21009;-81
2022/01/25 08:21:08;;;;;;;21.77;14.28;;;;;;;2.25;100.00;99899.82;2221061;80;20922;-82
2022/01/25 08:24:09;;;;;;;24.00;14.38;;;;;;;2.28;100.00;99902.20;2218698;80;21029;-83
2022/01/25 08:27:11;;;;;;;21.23;13.78;;;;;;;2.35;100.00;99897.94;2217906;80;21024;-83
2022/01/25 08:30:12;;;;;;;22.60;13.75;;;;;;;2.43;100.00;99898.27;2217709;80;21045;-83
2022/01/25 08:33:13;;;;;;;21.60;13.43;;;;;;;2.49;100.00;99901.30;2217795;80;21024;-84
2022/01/25 08:36:14;;;;;;;22.58;14.30;;;;;;;2.53;100.00;99901.92;2217709;80;20973;-84
2022/01/25 08:39:15;;;;;;;20.50;13.18;;;;;;;2.60;100.00;99895.89;2217502;80;21041;-83
2022/01/25 08:42:15;;;;;;;21.17;13.03;;;;;;;2.64;100.00;99882.65;2217533;80;20993;-84
2022/01/25 08:45:16;;;;;;;18.62;13.13;;;;;;;2.71;100.00;99886.95;2217479;80;20977;-83
2022/01/25 08:48:17;;;;;;;22.67;14.15;;;;;;;2.74;100.00;99881.14;2217554;80;21080;-83
2022/01/25 08:51:18;;;;;;;26.10;15.40;;;;;;;2.85;100.00;99881.25;2217598;80;21048;-83
2022/01/25 08:54:19;;;;;;;21.35;12.98;;;;;;;2.87;100.00;99868.20;2217536;80;20998;-83
2022/01/25 08:57:20;;;;;;;18.60;13.60;;;;;;;2.93;100.00;99866.52;2217635;80;21056;-83
2022/01/25 09:00:21;;;;;;;18.55;11.70;;;;;;;3.00;100.00;99872.08;2217464;80;21641;-84
2022/01/25 09:03:21;;;;;;;19.25;13.35;;;;;;;3.08;100.00;99871.10;2217949;80;21016;-83
2022/01/25 09:06:22;;;;;;;16.57;11.55;;;;;;;3.17;100.00;99867.89;2217873;80;21072;-84
2022/01/25 09:09:23;;;;;;;18.75;11.93;;;;;;;3.27;100.00;99868.91;2217646;80;21021;-84
2022/01/25 09:12:24;;;;;;;14.75;10.18;;;;;;;3.30;100.00;99866.14;2217630;80;20989;-83
2022/01/25 09:15:25;;;;;;;13.72;9.18;;;;;;;3.37;100.00;99870.41;2217699;80;21037;-83
2022/01/25 09:18:26;;;;;;;16.62;10.72;;;;;;;3.35;100.00;99872.28;2217224;80;21056;-84
2022/01/25 09:21:27;;;;;;;16.55;11.22;;;;;;;3.30;100.00;99870.02;2217458;80;20946;-83
2022/01/25 09:24:29;;;;;;;14.50;10.80;;;;;;;3.31;100.00;99866.96;2217573;80;21001;-83
2022/01/25 09:27:30;;;;;;;15.58;11.22;;;;;;;3.26;100.00;99866.44;2217676;80;21147;-83
2022/01/25 09:30:31;;;;;;;13.98;9.95;;;;;;;3.21;100.00;99862.05;2217730;80;20954;-83
2022/01/25 09:33:32;;;;;;;17.62;12.13;;;;;;;3.13;100.00;99859.98;2217591;80;21001;-83
2022/01/25 09:36:33;;;;;;;16.73;11.28;;;;;;;3.16;100.00;99858.47;2217571;80;21038;-83
2022/01/25 09:39:34;;;;;;;17.52;11.78;;;;;;;3.23;100.00;99859.72;2214675;80;21053;-83
2022/01/25 09:42:35;;;;;;;22.22;11.73;;;;;;;3.28;100.00;99849.03;2202848;81;21005;-83
2022/01/25 09:45:36;;;;;;;17.17;12.10;;;;;;;3.32;100.00;99853.91;2202445;81;21616;-84
2022/01/25 09:48:36;;;;;;;18.73;12.60;;;;;;;3.28;100.00;99851.63;2202258;81;20958;-86
2022/01/25 09:51:37;;;;;;;18.60;13.05;;;;;;;3.28;100.00;99845.15;2202178;81;21014;-84
2022/01/25 09:54:38;;;;;;;19.82;12.20;;;;;;;3.29;100.00;99847.66;2202336;81;21030;-83
2022/01/25 09:57:39;;;;;;;20.02;13.78;;;;;;;3.28;100.00;99834.80;2202165;81;21036;-84
2022/01/25 10:00:40;;;;;;;19.27;13.80;;;;;;;3.23;100.00;99844.66;2202348;81;21077;-83
2022/01/25 10:03:42;;;;;;;20.12;12.88;;;;;;;3.19;100.00;99831.55;2202255;81;21058;-88
2022/01/25 10:06:43;;;;;;;20.88;13.88;;;;;;;3.11;100.00;99834.22;2202118;81;21497;-85
2022/01/25 10:09:44;;;;;;;20.45;13.35;;;;;;;3.08;100.00;99837.45;2202464;81;20982;-83
2022/01/25 10:12:45;;;;;;;17.55;11.73;;;;;;;3.05;100.00;99832.50;2202387;81;21018;-85
2022/01/25 10:15:45;;;;;;;21.27;15.03;;;;;;;2.99;100.00;99828.56;2202522;81;21520;-84
2022/01/25 10:18:46;;;;;;;21.45;14.55;;;;;;;2.91;100.00;99824.37;2202402;81;21465;-83
2022/01/25 10:21:50;;;;;;;20.35;14.40;;;;;;;2.88;100.00;99819.88;2202133;81;20974;-83
2022/01/25 10:24:50;;;;;;;40.48;27.42;;;;;;;2.91;100.00;99823.55;2147825;82;21483;-86
2022/01/25 10:28:11;;;;;;;20.85;14.07;;;;;;;2.90;100.00;99820.59;2147767;83;21004;-87
2022/01/25 10:31:05;;;;;;;23.40;14.13;;;;;;;2.92;100.00;99819.55;2148414;82;21080;-86
2022/01/25 10:34:06;;;;;;;18.00;13.28;;;;;;;2.95;100.00;99810.31;2147893;83;21015;-86
2022/01/25 10:37:07;;;;;;;17.35;12.50;;;;;;;3.01;100.00;99812.92;2147711;83;21527;-85
2022/01/25 10:40:08;;;;;;;20.48;14.83;;;;;;;3.10;100.00;99800.19;2155872;82;21150;-85
2022/01/25 10:43:08;;;;;;;16.07;11.75;;;;;;;3.23;100.00;99792.89;2151865;83;21005;-84
2022/01/25 10:46:09;;;;;;;21.25;12.93;;;;;;;3.28;100.00;99792.08;2152235;83;21315;-84
2022/01/25 10:49:10;;;;;;;20.15;14.15;;;;;;;3.36;100.00;99785.44;2152123;83;21583;-87
2022/01/25 10:52:11;;;;;;;18.70;12.35;;;;;;;3.48;100.00;99770.00;2152460;83;20977;-85
2022/01/25 10:55:12;;;;;;;17.27;13.03;;;;;;;3.57;100.00;99777.94;2152638;83;21039;-86
2022/01/25 10:58:13;;;;;;;20.80;13.15;;;;;;;3.64;100.00;99771.83;2152471;83;20941;-84
2022/01/25 11:01:13;;;;;;;22.07;14.53;;;;;;;3.80;100.00;99765.91;2152521;83;20996;-84
2022/01/25 11:04:14;;;;;;;21.00;13.90;;;;;;;3.94;100.00;99763.63;2152480;83;21020;-84
2022/01/25 11:07:15;;;;;;;20.90;14.85;;;;;;;3.90;100.00;99777.73;2152700;83;21514;-84
2022/01/25 11:10:16;;;;;;;20.70;13.98;;;;;;;3.92;100.00;99770.66;2152789;83;21016;-85
2022/01/25 11:13:35;;;;;;;18.57;13.95;;;;;;;3.91;100.00;99776.31;2152536;83;20961;-84
2022/01/25 11:16:25;;;;;;;18.42;13.43;;;;;;;3.88;100.00;99775.72;2149564;83;21099;-84
2022/01/25 11:19:26;;;;;;;22.13;15.70;;;;;;;3.79;100.00;99775.09;2152527;83;21582;-84
2022/01/25 11:22:27;;;;;;;26.23;17.07;;;;;;;3.66;100.00;99775.98;2152303;83;21472;-83
2022/01/25 11:25:28;;;;;;;22.13;15.32;;;;;;;3.56;100.00;99774.95;2152466;83;21020;-84
2022/01/25 11:28:30;;;;;;;21.23;14.55;;;;;;;3.45;100.00;99772.31;2152479;83;21079;-86
2022/01/25 11:31:30;;;;;;;23.27;14.35;;;;;;;3.43;100.00;99769.83;2152317;83;21532;-83
2022/01/25 11:34:31;;;;;;;22.15;13.78;;;;;;;3.42;100.00;99770.77;2152454;83;21287;-83
2022/01/25 11:37:32;;;;;;;24.02;14.87;;;;;;;3.35;100.00;99770.02;2152425;83;21043;-84
2022/01/25 11:40:34;;;;;;;24.55;16.20;;;;;;;3.29;100.00;99780.35;2154117;82;21016;-83
2022/01/25 11:43:35;;;;;;;26.93;16.80;;;;;;;3.25;100.00;99771.13;2157339;82;21064;-85
2022/01/25 11:46:36;;;;;;;28.67;16.35;;;;;;;3.24;100.00;99766.89;2160341;82;21035;-84
2022/01/25 11:49:36;;;;;;;22.40;14.80;;;;;;;3.21;100.00;99754.17;2216111;80;21014;-82
2022/01/25 11:52:37;;;;;;;26.23;15.55;;;;;;;3.18;100.00;99747.89;2217644;80;21308;-85
2022/01/25 11:55:38;;;;;;;24.25;15.45;;;;;;;3.15;100.00;99755.88;2216382;80;20993;-84
2022/01/25 11:58:39;;;;;;;19.37;13.65;;;;;;;3.16;100.00;99764.47;2215538;80;20918;-83
2022/01/25 12:01:39;;;;;;;23.57;15.75;;;;;;;3.16;100.00;99757.53;2215523;80;21060;-83
2022/01/25 12:04:41;;;;;;;21.10;14.63;;;;;;;3.16;100.00;99757.53;2215847;80;21093;-83
2022/01/25 12:07:43;;;;;;;21.70;14.93;;;;;;;3.18;100.00;99759.54;2215781;80;21032;-83
2022/01/25 12:10:45;;;;;;;18.80;13.13;;;;;;;3.19;100.00;99750.84;2215780;80;21531;-83
2022/01/25 12:13:46;;;;;;;22.32;14.25;;;;;;;3.21;100.00;99743.81;2215518;80;20985;-83
2022/01/25 12:16:47;;;;;;;18.87;13.53;;;;;;;3.26;100.00;99739.12;2215619;80;21575;-85
2022/01/25 12:19:49;;;;;;;20.80;13.68;;;;;;;3.29;100.00;99732.46;2215801;80;20989;-87
2022/01/25 12:22:50;;;;;;;22.45;14.63;;;;;;;3.35;100.00;99735.89;2215733;80;21005;-84
2022/01/25 12:25:57;;;;;;;18.73;12.85;;;;;;;3.39;100.00;99730.05;2216165;80;21029;-83
2022/01/25 12:28:56;;;;;;;21.15;13.75;;;;;;;3.42;100.00;99728.05;2215619;80;20989;-82
2022/01/25 12:31:57;;;;;;;20.25;13.28;;;;;;;3.40;100.00;99726.52;2215730;80;21021;-83
2022/01/25 12:34:58;;;;;;;16.17;12.68;;;;;;;3.42;100.00;99725.46;2215654;80;20969;-85
2022/01/25 12:37:59;;;;;;;16.70;11.48;;;;;;;3.46;100.00;99722.64;2215703;80;21031;-85
2022/01/25 12:41:00;;;;;;;18.98;13.50;;;;;;;3.55;100.00;99727.98;2216492;80;21477;-86
2022/01/25 12:44:02;;;;;;;19.15;12.93;;;;;;;3.58;100.00;99729.08;2217744;80;21021;-88
2022/01/25 12:47:03;;;;;;;22.50;14.55;;;;;;;3.61;100.00;99728.03;2218220;80;20970;-87
2022/01/25 12:50:03;;;;;;;25.92;15.93;;;;;;;3.54;100.00;99730.69;2217955;80;20962;-86
2022/01/25 12:53:04;;;;;;;26.48;15.80;;;;;;;3.50;100.00;99722.80;2218080;80;21076;-86
2022/01/25 12:56:05;;;;;;;27.87;15.65;;;;;;;3.43;100.00;99734.05;2217895;80;20974;-86
2022/01/25 12:59:07;;;;;;;23.20;15.10;;;;;;;3.40;100.00;99732.52;2217684;80;20977;-83
2022/01/25 13:02:07;;;;;;;22.27;15.40;;;;;;;3.38;100.00;99727.92;2217750;80;20997;-84
2022/01/25 13:05:10;;;;;;;24.63;15.25;;;;;;;3.32;100.00;99735.30;2217775;80;20977;-84
2022/01/25 13:08:11;;;;;;;21.50;14.80;;;;;;;3.23;100.00;99729.47;2217930;80;21035;-84
2022/01/25 13:11:12;;;;;;;24.40;15.32;;;;;;;3.20;100.00;99729.66;2217941;80;20990;-84
2022/01/25 13:17:17;;;;;;;22.75;14.50;;;;;;;3.14;100.00;99728.35;2218109;80;21020;-85
2022/01/25 13:20:18;;;;;;;23.15;14.33;;;;;;;3.21;100.00;99710.64;2217609;80;20985;-85
2022/01/25 13:23:19;;;;;;;21.07;13.05;;;;;;;3.19;100.00;99712.48;2217578;80;20922;-84
2022/01/25 13:26:22;;;;;;;19.17;12.73;;;;;;;3.21;100.00;99717.94;2217733;80;21016;-84
2022/01/25 13:32:27;;;;;;;21.97;13.83;;;;;;;3.19;100.00;99725.42;2145192;83;21590;-83
2022/01/25 13:35:31;;;;;;;22.22;14.43;;;;;;;3.18;100.00;99722.02;2145460;83;21110;-84
2022/01/25 13:38:31;;;;;;;24.30;14.73;;;;;;;3.18;100.00;99725.07;2145475;83;20984;-83
2022/01/25 13:41:41;;;;;;;24.95;15.38;;;;;;;3.14;100.00;99724.47;2145315;83;21130;-83
2022/01/25 13:47:54;;;;;;;32.75;18.35;;;;;;;3.04;100.00;99732.52;2145358;83;21027;-82
2022/01/25 13:50:55;;;;;;;28.55;16.57;;;;;;;2.99;100.00;99727.66;2145379;83;21182;-83
2022/01/25 13:53:56;;;;;;;30.57;17.23;;;;;;;2.95;100.00;99730.11;2145438;83;21020;-82
2022/01/25 13:56:56;;;;;;;34.98;18.40;;;;;;;2.89;100.00;99720.17;2145320;83;20949;-82
2022/01/25 13:59:57;;;;;;;41.55;21.57;;;;;;;2.82;100.00;99727.52;2145231;83;21012;-82
2022/01/25 14:02:59;;;;;;;39.85;21.55;;;;;;;2.79;100.00;99726.45;2145517;83;20992;-87
2022/01/25 14:06:00;;;;;;;39.25;20.20;;;;;;;2.74;100.00;99722.08;2145449;83;21032;-85
2022/01/25 14:09:02;;;;;;;37.90;20.62;;;;;;;2.72;100.00;99720.50;2169952;80;25352;-84
2022/01/25 14:22:00;;;;;;;34.35;19.77;;;;;;;2.65;100.00;99716.23;2217676;80;20942;-85
2022/01/25 14:24:56;;;;;;;;;;;;;;;2.55;100.00;99716.01;2218937;80;21061;-85
2022/01/25 14:27:58;;;;;;;29.15;17.25;;;;;;;2.54;100.00;99727.75;2217476;80;20084;-85
2022/01/25 14:31:01;;;;;;;31.07;17.65;;;;;;;2.48;100.00;99713.50;2218968;80;20970;-83
2022/01/25 14:34:01;;;;;;;37.38;19.70;;;;;;;2.43;100.00;99718.61;2217790;80;20981;-84
2022/01/25 14:37:02;;;;;;;36.35;19.90;;;;;;;2.36;100.00;99718.19;2217666;80;21001;-85
2022/01/25 14:40:03;;;;;;;33.00;19.50;;;;;;;2.31;100.00;99720.27;2217453;80;21005;-85
2022/01/25 14:43:04;;;;;;;26.65;16.52;;;;;;;2.28;100.00;99721.28;2221638;80;21077;-86
2022/01/25 14:46:05;;;;;;;28.65;18.00;;;;;;;2.24;100.00;99722.42;2223458;80;21065;-84
2022/01/25 14:49:09;;;;;;;26.33;16.20;;;;;;;2.19;100.00;99721.89;2224513;80;21032;-80
2022/01/25 14:52:09;;;;;;;31.95;16.73;;;;;;;2.14;100.00;99729.60;2222826;80;21560;-86
2022/01/25 14:55:10;;;;;;;26.57;17.30;;;;;;;2.07;100.00;99725.30;2222130;80;21045;-86
2022/01/25 15:01:14;;;;;;;30.97;18.52;;;;;;;2.00;100.00;99735.66;2222016;80;20989;-84
2022/01/25 15:04:15;;;;;;;32.03;19.25;;;;;;;1.95;100.00;99740.32;2222041;80;21591;-87
2022/01/25 15:07:17;;;;;;;36.77;21.40;;;;;;;1.89;100.00;99745.41;2221835;80;20970;-86
2022/01/25 15:10:21;;;;;;;32.00;18.37;;;;;;;1.84;100.00;99744.06;2221999;80;21135;-84
2022/01/25 15:13:26;;;;;;;35.50;19.67;;;;;;;1.81;100.00;99743.78;2221956;80;21020;-86
2022/01/25 15:16:26;;;;;;;28.90;16.17;;;;;;;1.80;100.00;99740.01;2222552;80;20984;-86
2022/01/25 15:19:27;;;;;;;27.77;16.37;;;;;;;1.81;100.00;99735.20;2222163;80;20985;-87
2022/01/25 15:22:29;;;;;;;33.25;18.92;;;;;;;1.80;100.00;99738.72;2222247;80;21065;-87
2022/01/25 15:25:30;;;;;;;33.48;20.40;;;;;;;1.74;100.00;99747.70;2222337;80;21077;-86
2022/01/25 15:28:41;;;;;;;25.65;15.43;;;;;;;1.73;100.00;99733.11;2222102;80;20993;-86
2022/01/25 15:31:39;;;;;;;29.72;17.50;;;;;;;1.72;100.00;99737.91;2221742;80;21509;-87
2022/01/25 15:34:41;;;;;;;31.95;18.20;;;;;;;1.70;100.00;99743.64;2222613;80;20966;-85
2022/01/25 15:37:44;;;;;;;26.90;16.20;;;;;;;1.70;100.00;99747.05;2222352;80;20988;-87
2022/01/25 15:40:45;;;;;;;32.38;17.92;;;;;;;1.68;100.00;99740.34;2220736;80;21037;-87
2022/01/25 15:43:53;;;;;;;27.30;15.43;;;;;;;1.67;100.00;99733.52;2202369;81;21493;-87
2022/01/25 15:49:52;;;;;;;25.97;15.55;;;;;;;1.71;100.00;99737.09;2147927;83;21083;-86
2022/01/25 15:52:53;;;;;;;27.70;15.85;;;;;;;1.70;100.00;99732.03;2148262;83;20933;-84
2022/01/25 15:55:54;;;;;;;24.12;14.65;;;;;;;1.73;100.00;99746.02;2148323;83;21308;-84